sensor_id;sensor_type;location;lat;lon;timestamp;P1;durP1;ratioP1;P2;durP2;ratioP2
71423;SDS011;59240;51.370;-0.486;2023-12-20T00:03:28;8.30;;;1.35;;
71423;SDS011;59240;51.370;-0.486;2023-12-20T00:08:37;5.10;;;0.93;;
71423;SDS011;59240;51.370;-0.486;2023-12-20T00:13:34;5.18;;;1.48;;
71423;SDS011;59240;51.370;-0.486;2023-12-20T00:18:31;3.17;;;1.10;;
71423;SDS011;59240;51.370;-0.486;2023-12-20T00:23:28;3.08;;;0.98;;
71423;SDS011;59240;51.370;-0.486;2023-12-20T00:28:25;3.67;;;1.13;;
71423;SDS011;59240;51.370;-0.486;2023-12-20T00:33:22;7.72;;;1.52;;
71423;SDS011;59240;51.370;-0.486;2023-12-20T00:38:19;3.97;;;0.90;;
71423;SDS011;59240;51.370;-0.486;2023-12-20T00:43:16;6.57;;;0.93;;
71423;SDS011;59240;51.370;-0.486;2023-12-20T00:48:13;9.07;;;1.50;;
71423;SDS011;59240;51.370;-0.486;2023-12-20T00:53:10;6.07;;;1.02;;
71423;SDS011;59240;51.370;-0.486;2023-12-20T00:58:07;6.68;;;1.38;;
71423;SDS011;59240;51.370;-0.486;2023-12-20T01:03:04;4.68;;;0.73;;
71423;SDS011;59240;51.370;-0.486;2023-12-20T01:08:01;4.20;;;1.13;;
71423;SDS011;59240;51.370;-0.486;2023-12-20T01:12:59;5.65;;;1.30;;
71423;SDS011;59240;51.370;-0.486;2023-12-20T01:17:56;3.05;;;1.13;;
71423;SDS011;59240;51.370;-0.486;2023-12-20T01:22:55;8.05;;;1.17;;
71423;SDS011;59240;51.370;-0.486;2023-12-20T01:27:52;6.10;;;1.73;;
71423;SDS011;59240;51.370;-0.486;2023-12-20T01:32:49;5.22;;;1.10;;
71423;SDS011;59240;51.370;-0.486;2023-12-20T01:37:46;3.72;;;0.77;;
71423;SDS011;59240;51.370;-0.486;2023-12-20T01:42:43;2.78;;;0.90;;
71423;SDS011;59240;51.370;-0.486;2023-12-20T01:47:40;0.65;;;0.60;;
71423;SDS011;59240;51.370;-0.486;2023-12-20T01:52:37;6.95;;;1.50;;
71423;SDS011;59240;51.370;-0.486;2023-12-20T01:57:34;2.63;;;0.63;;
71423;SDS011;59240;51.370;-0.486;2023-12-20T02:02:31;1.35;;;0.70;;
71423;SDS011;59240;51.370;-0.486;2023-12-20T02:07:29;2.88;;;1.52;;
71423;SDS011;59240;51.370;-0.486;2023-12-20T02:12:27;0.77;;;0.40;;
71423;SDS011;59240;51.370;-0.486;2023-12-20T02:17:24;9.00;;;1.88;;
71423;SDS011;59240;51.370;-0.486;2023-12-20T02:22:22;4.68;;;1.02;;
71423;SDS011;59240;51.370;-0.486;2023-12-20T02:27:19;4.40;;;1.05;;
71423;SDS011;59240;51.370;-0.486;2023-12-20T02:32:17;3.13;;;1.30;;
71423;SDS011;59240;51.370;-0.486;2023-12-20T02:37:16;4.28;;;1.00;;
71423;SDS011;59240;51.370;-0.486;2023-12-20T02:42:13;2.90;;;1.20;;
71423;SDS011;59240;51.370;-0.486;2023-12-20T02:47:10;9.60;;;1.70;;
71423;SDS011;59240;51.370;-0.486;2023-12-20T02:52:07;6.63;;;1.45;;
71423;SDS011;59240;51.370;-0.486;2023-12-20T02:57:05;10.60;;;1.25;;
71423;SDS011;59240;51.370;-0.486;2023-12-20T03:02:02;2.95;;;1.20;;
71423;SDS011;59240;51.370;-0.486;2023-12-20T03:07:00;2.85;;;1.08;;
71423;SDS011;59240;51.370;-0.486;2023-12-20T03:11:56;9.43;;;1.60;;
71423;SDS011;59240;51.370;-0.486;2023-12-20T03:16:56;3.35;;;1.10;;
71423;SDS011;59240;51.370;-0.486;2023-12-20T03:21:56;2.20;;;0.40;;
71423;SDS011;59240;51.370;-0.486;2023-12-20T03:26:53;3.10;;;0.85;;
71423;SDS011;59240;51.370;-0.486;2023-12-20T03:31:50;8.57;;;1.52;;
71423;SDS011;59240;51.370;-0.486;2023-12-20T03:36:48;1.65;;;0.57;;
71423;SDS011;59240;51.370;-0.486;2023-12-20T03:41:45;5.80;;;1.30;;
71423;SDS011;59240;51.370;-0.486;2023-12-20T03:46:42;6.50;;;1.30;;
71423;SDS011;59240;51.370;-0.486;2023-12-20T03:51:39;7.10;;;1.80;;
71423;SDS011;59240;51.370;-0.486;2023-12-20T03:56:36;7.22;;;1.23;;
71423;SDS011;59240;51.370;-0.486;2023-12-20T04:01:33;8.43;;;1.10;;
71423;SDS011;59240;51.370;-0.486;2023-12-20T04:06:30;8.57;;;1.05;;
71423;SDS011;59240;51.370;-0.486;2023-12-20T04:11:26;7.82;;;1.05;;
71423;SDS011;59240;51.370;-0.486;2023-12-20T04:16:23;4.13;;;1.55;;
71423;SDS011;59240;51.370;-0.486;2023-12-20T04:21:20;5.45;;;1.10;;
71423;SDS011;59240;51.370;-0.486;2023-12-20T04:26:17;4.03;;;1.50;;
71423;SDS011;59240;51.370;-0.486;2023-12-20T04:31:14;4.35;;;0.68;;
71423;SDS011;59240;51.370;-0.486;2023-12-20T04:36:11;7.85;;;1.80;;
71423;SDS011;59240;51.370;-0.486;2023-12-20T04:41:08;4.97;;;0.65;;
71423;SDS011;59240;51.370;-0.486;2023-12-20T04:46:05;9.93;;;0.93;;
71423;SDS011;59240;51.370;-0.486;2023-12-20T04:51:02;4.43;;;1.10;;
71423;SDS011;59240;51.370;-0.486;2023-12-20T04:55:59;4.30;;;1.23;;
71423;SDS011;59240;51.370;-0.486;2023-12-20T05:00:56;7.20;;;1.27;;
71423;SDS011;59240;51.370;-0.486;2023-12-20T05:05:53;5.78;;;1.27;;
71423;SDS011;59240;51.370;-0.486;2023-12-20T05:10:51;5.55;;;1.05;;
71423;SDS011;59240;51.370;-0.486;2023-12-20T05:15:50;5.50;;;1.45;;
71423;SDS011;59240;51.370;-0.486;2023-12-20T05:20:49;7.22;;;1.27;;
71423;SDS011;59240;51.370;-0.486;2023-12-20T05:25:47;7.55;;;1.25;;
71423;SDS011;59240;51.370;-0.486;2023-12-20T05:30:44;9.88;;;1.63;;
71423;SDS011;59240;51.370;-0.486;2023-12-20T05:35:41;5.30;;;1.00;;
71423;SDS011;59240;51.370;-0.486;2023-12-20T05:40:38;13.15;;;1.70;;
71423;SDS011;59240;51.370;-0.486;2023-12-20T05:45:34;9.15;;;1.73;;
71423;SDS011;59240;51.370;-0.486;2023-12-20T05:50:31;4.57;;;0.82;;
71423;SDS011;59240;51.370;-0.486;2023-12-20T05:55:28;10.30;;;1.58;;
71423;SDS011;59240;51.370;-0.486;2023-12-20T06:00:25;10.68;;;1.20;;
71423;SDS011;59240;51.370;-0.486;2023-12-20T06:05:22;8.98;;;1.17;;
71423;SDS011;59240;51.370;-0.486;2023-12-20T06:10:19;5.05;;;1.42;;
71423;SDS011;59240;51.370;-0.486;2023-12-20T06:15:15;8.10;;;1.35;;
71423;SDS011;59240;51.370;-0.486;2023-12-20T06:20:12;9.07;;;1.00;;
71423;SDS011;59240;51.370;-0.486;2023-12-20T06:25:09;5.57;;;1.08;;
71423;SDS011;59240;51.370;-0.486;2023-12-20T06:30:07;11.90;;;1.52;;
71423;SDS011;59240;51.370;-0.486;2023-12-20T06:35:06;3.83;;;0.82;;
71423;SDS011;59240;51.370;-0.486;2023-12-20T06:40:03;0.40;;;0.30;;
71423;SDS011;59240;51.370;-0.486;2023-12-20T06:45:01;9.35;;;1.30;;
71423;SDS011;59240;51.370;-0.486;2023-12-20T06:49:58;5.78;;;1.63;;
71423;SDS011;59240;51.370;-0.486;2023-12-20T06:54:55;5.65;;;0.98;;
71423;SDS011;59240;51.370;-0.486;2023-12-20T06:59:52;9.25;;;1.67;;
71423;SDS011;59240;51.370;-0.486;2023-12-20T07:04:49;7.43;;;1.73;;
71423;SDS011;59240;51.370;-0.486;2023-12-20T07:09:46;2.97;;;1.00;;
71423;SDS011;59240;51.370;-0.486;2023-12-20T07:14:43;9.07;;;1.50;;
71423;SDS011;59240;51.370;-0.486;2023-12-20T07:19:40;6.40;;;1.25;;
71423;SDS011;59240;51.370;-0.486;2023-12-20T07:24:37;5.90;;;1.13;;
71423;SDS011;59240;51.370;-0.486;2023-12-20T07:29:34;9.88;;;1.40;;
71423;SDS011;59240;51.370;-0.486;2023-12-20T07:34:31;6.75;;;1.30;;
71423;SDS011;59240;51.370;-0.486;2023-12-20T07:39:32;14.23;;;1.10;;
71423;SDS011;59240;51.370;-0.486;2023-12-20T07:44:29;5.55;;;1.10;;
71423;SDS011;59240;51.370;-0.486;2023-12-20T07:49:26;9.40;;;1.40;;
71423;SDS011;59240;51.370;-0.486;2023-12-20T07:54:23;3.58;;;1.23;;
71423;SDS011;59240;51.370;-0.486;2023-12-20T07:59:20;3.15;;;1.02;;
71423;SDS011;59240;51.370;-0.486;2023-12-20T08:04:28;8.68;;;1.42;;
71423;SDS011;59240;51.370;-0.486;2023-12-20T08:09:25;9.27;;;1.05;;
71423;SDS011;59240;51.370;-0.486;2023-12-20T08:14:21;4.97;;;1.05;;
71423;SDS011;59240;51.370;-0.486;2023-12-20T08:19:18;5.65;;;1.17;;
71423;SDS011;59240;51.370;-0.486;2023-12-20T08:24:15;7.15;;;1.20;;
71423;SDS011;59240;51.370;-0.486;2023-12-20T08:29:15;5.32;;;0.90;;
71423;SDS011;59240;51.370;-0.486;2023-12-20T08:34:12;3.88;;;1.35;;
71423;SDS011;59240;51.370;-0.486;2023-12-20T08:39:11;8.07;;;1.85;;
71423;SDS011;59240;51.370;-0.486;2023-12-20T08:44:11;4.50;;;1.65;;
71423;SDS011;59240;51.370;-0.486;2023-12-20T08:49:08;11.98;;;1.40;;
71423;SDS011;59240;51.370;-0.486;2023-12-20T08:54:06;8.98;;;1.42;;
71423;SDS011;59240;51.370;-0.486;2023-12-20T08:59:06;10.07;;;1.42;;
71423;SDS011;59240;51.370;-0.486;2023-12-20T09:04:07;7.60;;;1.42;;
71423;SDS011;59240;51.370;-0.486;2023-12-20T09:09:04;6.25;;;1.40;;
71423;SDS011;59240;51.370;-0.486;2023-12-20T09:14:01;5.70;;;1.10;;
71423;SDS011;59240;51.370;-0.486;2023-12-20T09:18:58;5.47;;;1.50;;
71423;SDS011;59240;51.370;-0.486;2023-12-20T09:23:55;1.30;;;0.60;;
71423;SDS011;59240;51.370;-0.486;2023-12-20T09:28:52;12.73;;;1.42;;
71423;SDS011;59240;51.370;-0.486;2023-12-20T09:33:49;3.95;;;0.93;;
71423;SDS011;59240;51.370;-0.486;2023-12-20T09:38:48;5.40;;;1.15;;
71423;SDS011;59240;51.370;-0.486;2023-12-20T09:43:45;11.45;;;2.15;;
71423;SDS011;59240;51.370;-0.486;2023-12-20T09:48:43;5.05;;;0.90;;
71423;SDS011;59240;51.370;-0.486;2023-12-20T09:53:42;12.25;;;1.90;;
71423;SDS011;59240;51.370;-0.486;2023-12-20T09:58:40;5.55;;;2.15;;
71423;SDS011;59240;51.370;-0.486;2023-12-20T10:03:37;5.78;;;2.50;;
71423;SDS011;59240;51.370;-0.486;2023-12-20T10:08:38;4.72;;;1.30;;
71423;SDS011;59240;51.370;-0.486;2023-12-20T10:13:39;10.77;;;3.25;;
71423;SDS011;59240;51.370;-0.486;2023-12-20T10:18:38;9.70;;;1.25;;
71423;SDS011;59240;51.370;-0.486;2023-12-20T10:23:35;3.70;;;1.27;;
71423;SDS011;59240;51.370;-0.486;2023-12-20T10:28:33;5.47;;;1.13;;
71423;SDS011;59240;51.370;-0.486;2023-12-20T10:33:31;6.22;;;1.17;;
71423;SDS011;59240;51.370;-0.486;2023-12-20T10:38:33;5.03;;;1.55;;
71423;SDS011;59240;51.370;-0.486;2023-12-20T10:43:32;6.80;;;1.38;;
71423;SDS011;59240;51.370;-0.486;2023-12-20T10:48:32;5.20;;;1.10;;
71423;SDS011;59240;51.370;-0.486;2023-12-20T10:53:31;5.40;;;1.20;;
71423;SDS011;59240;51.370;-0.486;2023-12-20T10:58:28;8.02;;;1.60;;
71423;SDS011;59240;51.370;-0.486;2023-12-20T11:03:30;5.25;;;1.05;;
71423;SDS011;59240;51.370;-0.486;2023-12-20T11:14:08;4.15;;;1.40;;
71423;SDS011;59240;51.370;-0.486;2023-12-20T11:19:12;6.47;;;1.20;;
71423;SDS011;59240;51.370;-0.486;2023-12-20T11:24:10;4.38;;;1.08;;
71423;SDS011;59240;51.370;-0.486;2023-12-20T11:29:29;6.65;;;1.02;;
71423;SDS011;59240;51.370;-0.486;2023-12-20T11:34:33;8.05;;;1.73;;
71423;SDS011;59240;51.370;-0.486;2023-12-20T11:39:35;3.20;;;0.80;;
71423;SDS011;59240;51.370;-0.486;2023-12-20T11:44:38;4.45;;;0.88;;
71423;SDS011;59240;51.370;-0.486;2023-12-20T11:49:39;2.88;;;1.25;;
71423;SDS011;59240;51.370;-0.486;2023-12-20T11:54:37;5.38;;;1.13;;
71423;SDS011;59240;51.370;-0.486;2023-12-20T11:59:34;5.20;;;0.60;;
71423;SDS011;59240;51.370;-0.486;2023-12-20T12:04:33;7.32;;;1.05;;
71423;SDS011;59240;51.370;-0.486;2023-12-20T12:09:31;7.18;;;0.82;;
71423;SDS011;59240;51.370;-0.486;2023-12-20T12:14:30;3.40;;;0.73;;
71423;SDS011;59240;51.370;-0.486;2023-12-20T12:19:27;2.58;;;0.90;;
71423;SDS011;59240;51.370;-0.486;2023-12-20T12:24:31;2.85;;;0.70;;
71423;SDS011;59240;51.370;-0.486;2023-12-20T12:29:33;2.85;;;0.98;;
71423;SDS011;59240;51.370;-0.486;2023-12-20T12:34:36;3.35;;;1.23;;
71423;SDS011;59240;51.370;-0.486;2023-12-20T12:39:34;2.70;;;0.63;;
71423;SDS011;59240;51.370;-0.486;2023-12-20T12:44:54;6.28;;;1.25;;
71423;SDS011;59240;51.370;-0.486;2023-12-20T12:49:52;1.80;;;1.02;;
71423;SDS011;59240;51.370;-0.486;2023-12-20T12:54:50;3.60;;;1.15;;
71423;SDS011;59240;51.370;-0.486;2023-12-20T12:59:47;4.95;;;0.90;;
71423;SDS011;59240;51.370;-0.486;2023-12-20T13:04:44;3.75;;;0.90;;
71423;SDS011;59240;51.370;-0.486;2023-12-20T13:10:15;4.55;;;0.77;;
71423;SDS011;59240;51.370;-0.486;2023-12-20T13:20:54;1.73;;;0.60;;
71423;SDS011;59240;51.370;-0.486;2023-12-20T13:26:19;2.65;;;0.75;;
71423;SDS011;59240;51.370;-0.486;2023-12-20T13:31:16;0.60;;;0.40;;
71423;SDS011;59240;51.370;-0.486;2023-12-20T13:36:13;4.25;;;0.88;;
71423;SDS011;59240;51.370;-0.486;2023-12-20T13:41:10;3.20;;;1.40;;
71423;SDS011;59240;51.370;-0.486;2023-12-20T13:46:27;3.33;;;0.90;;
71423;SDS011;59240;51.370;-0.486;2023-12-20T13:51:27;2.22;;;0.73;;
71423;SDS011;59240;51.370;-0.486;2023-12-20T13:57:02;2.58;;;1.02;;
71423;SDS011;59240;51.370;-0.486;2023-12-20T14:02:12;1.80;;;0.95;;
71423;SDS011;59240;51.370;-0.486;2023-12-20T14:07:15;4.82;;;0.90;;
71423;SDS011;59240;51.370;-0.486;2023-12-20T14:12:19;2.42;;;0.75;;
71423;SDS011;59240;51.370;-0.486;2023-12-20T14:17:27;3.22;;;1.05;;
71423;SDS011;59240;51.370;-0.486;2023-12-20T14:22:52;5.32;;;0.98;;
71423;SDS011;59240;51.370;-0.486;2023-12-20T14:44:23;4.30;;;0.70;;
71423;SDS011;59240;51.370;-0.486;2023-12-20T14:49:20;1.23;;;0.60;;
71423;SDS011;59240;51.370;-0.486;2023-12-20T14:54:40;1.10;;;0.52;;
71423;SDS011;59240;51.370;-0.486;2023-12-20T15:00:14;6.47;;;1.17;;
71423;SDS011;59240;51.370;-0.486;2023-12-20T15:06:10;4.60;;;1.45;;
71423;SDS011;59240;51.370;-0.486;2023-12-20T15:11:31;2.38;;;0.75;;
71423;SDS011;59240;51.370;-0.486;2023-12-20T15:16:47;4.32;;;1.02;;
71423;SDS011;59240;51.370;-0.486;2023-12-20T15:22:01;2.28;;;0.70;;
71423;SDS011;59240;51.370;-0.486;2023-12-20T15:27:16;5.30;;;1.23;;
71423;SDS011;59240;51.370;-0.486;2023-12-20T15:32:46;7.22;;;1.83;;
71423;SDS011;59240;51.370;-0.486;2023-12-20T15:37:48;3.95;;;1.35;;
71423;SDS011;59240;51.370;-0.486;2023-12-20T15:42:59;3.00;;;1.00;;
71423;SDS011;59240;51.370;-0.486;2023-12-20T15:47:57;7.32;;;1.23;;
71423;SDS011;59240;51.370;-0.486;2023-12-20T15:53:25;4.88;;;1.20;;
71423;SDS011;59240;51.370;-0.486;2023-12-20T15:58:22;3.85;;;1.20;;
71423;SDS011;59240;51.370;-0.486;2023-12-20T16:04:43;5.25;;;1.58;;
71423;SDS011;59240;51.370;-0.486;2023-12-20T16:09:42;6.97;;;1.00;;
71423;SDS011;59240;51.370;-0.486;2023-12-20T16:14:41;3.60;;;1.20;;
71423;SDS011;59240;51.370;-0.486;2023-12-20T16:19:49;2.67;;;0.85;;
71423;SDS011;59240;51.370;-0.486;2023-12-20T16:25:18;4.28;;;1.42;;
71423;SDS011;59240;51.370;-0.486;2023-12-20T16:30:39;3.03;;;1.00;;
71423;SDS011;59240;51.370;-0.486;2023-12-20T16:35:52;4.82;;;1.10;;
71423;SDS011;59240;51.370;-0.486;2023-12-20T16:41:05;6.75;;;2.65;;
71423;SDS011;59240;51.370;-0.486;2023-12-20T16:46:13;4.82;;;1.92;;
71423;SDS011;59240;51.370;-0.486;2023-12-20T16:51:13;3.85;;;1.10;;
71423;SDS011;59240;51.370;-0.486;2023-12-20T17:18:39;5.68;;;1.90;;
71423;SDS011;59240;51.370;-0.486;2023-12-20T17:30:17;6.93;;;1.90;;
71423;SDS011;59240;51.370;-0.486;2023-12-20T17:48:31;9.40;;;1.92;;
71423;SDS011;59240;51.370;-0.486;2023-12-20T17:54:33;4.47;;;1.40;;
71423;SDS011;59240;51.370;-0.486;2023-12-20T18:05:59;4.68;;;1.27;;
71423;SDS011;59240;51.370;-0.486;2023-12-20T18:11:12;5.20;;;1.30;;
71423;SDS011;59240;51.370;-0.486;2023-12-20T18:16:20;5.30;;;1.75;;
71423;SDS011;59240;51.370;-0.486;2023-12-20T18:21:56;7.88;;;2.50;;
71423;SDS011;59240;51.370;-0.486;2023-12-20T18:27:11;11.23;;;2.05;;
71423;SDS011;59240;51.370;-0.486;2023-12-20T18:32:32;7.00;;;2.35;;
71423;SDS011;59240;51.370;-0.486;2023-12-20T18:37:47;8.15;;;1.88;;
71423;SDS011;59240;51.370;-0.486;2023-12-20T18:42:44;9.63;;;2.47;;
71423;SDS011;59240;51.370;-0.486;2023-12-20T18:47:46;6.15;;;2.00;;
71423;SDS011;59240;51.370;-0.486;2023-12-20T18:52:46;3.53;;;1.30;;
71423;SDS011;59240;51.370;-0.486;2023-12-20T18:58:14;8.93;;;2.35;;
71423;SDS011;59240;51.370;-0.486;2023-12-20T19:03:19;13.13;;;3.72;;
71423;SDS011;59240;51.370;-0.486;2023-12-20T19:08:33;10.15;;;2.70;;
71423;SDS011;59240;51.370;-0.486;2023-12-20T19:14:30;11.98;;;2.95;;
71423;SDS011;59240;51.370;-0.486;2023-12-20T19:19:56;10.20;;;2.55;;
71423;SDS011;59240;51.370;-0.486;2023-12-20T19:31:19;12.52;;;2.45;;
71423;SDS011;59240;51.370;-0.486;2023-12-20T19:37:05;16.95;;;3.90;;
71423;SDS011;59240;51.370;-0.486;2023-12-20T19:42:51;13.85;;;2.83;;
71423;SDS011;59240;51.370;-0.486;2023-12-20T19:54:09;12.13;;;2.85;;
71423;SDS011;59240;51.370;-0.486;2023-12-20T20:04:58;18.38;;;4.30;;
71423;SDS011;59240;51.370;-0.486;2023-12-20T20:11:31;21.40;;;3.72;;
71423;SDS011;59240;51.370;-0.486;2023-12-20T20:16:44;13.70;;;3.20;;
71423;SDS011;59240;51.370;-0.486;2023-12-20T20:21:49;13.48;;;3.33;;
71423;SDS011;59240;51.370;-0.486;2023-12-20T20:27:14;18.63;;;3.60;;
71423;SDS011;59240;51.370;-0.486;2023-12-20T20:32:17;10.77;;;2.50;;
71423;SDS011;59240;51.370;-0.486;2023-12-20T20:37:29;8.85;;;2.83;;
71423;SDS011;59240;51.370;-0.486;2023-12-20T20:42:26;10.27;;;2.22;;
71423;SDS011;59240;51.370;-0.486;2023-12-20T20:47:41;14.88;;;3.38;;
71423;SDS011;59240;51.370;-0.486;2023-12-20T20:52:43;8.82;;;3.05;;
71423;SDS011;59240;51.370;-0.486;2023-12-20T21:10:19;8.38;;;2.60;;
71423;SDS011;59240;51.370;-0.486;2023-12-20T21:15:43;10.27;;;2.60;;
71423;SDS011;59240;51.370;-0.486;2023-12-20T21:20:44;3.50;;;1.52;;
71423;SDS011;59240;51.370;-0.486;2023-12-20T21:26:07;8.18;;;2.50;;
71423;SDS011;59240;51.370;-0.486;2023-12-20T21:31:13;12.68;;;2.92;;
71423;SDS011;59240;51.370;-0.486;2023-12-20T21:41:56;9.55;;;1.90;;
71423;SDS011;59240;51.370;-0.486;2023-12-20T21:47:04;11.35;;;1.85;;
71423;SDS011;59240;51.370;-0.486;2023-12-20T21:52:04;8.38;;;1.80;;
71423;SDS011;59240;51.370;-0.486;2023-12-20T21:57:06;4.55;;;1.52;;
71423;SDS011;59240;51.370;-0.486;2023-12-20T22:02:35;6.53;;;1.92;;
71423;SDS011;59240;51.370;-0.486;2023-12-20T22:14:07;5.80;;;1.65;;
71423;SDS011;59240;51.370;-0.486;2023-12-20T22:24:49;7.80;;;1.63;;
71423;SDS011;59240;51.370;-0.486;2023-12-20T22:29:46;8.15;;;1.67;;
71423;SDS011;59240;51.370;-0.486;2023-12-20T22:34:49;5.47;;;1.42;;
71423;SDS011;59240;51.370;-0.486;2023-12-20T22:40:09;5.43;;;1.00;;
71423;SDS011;59240;51.370;-0.486;2023-12-20T22:45:33;4.95;;;1.20;;
71423;SDS011;59240;51.370;-0.486;2023-12-20T23:09:36;4.50;;;1.00;;
71423;SDS011;59240;51.370;-0.486;2023-12-20T23:14:37;9.48;;;1.17;;
71423;SDS011;59240;51.370;-0.486;2023-12-20T23:19:34;2.28;;;1.10;;
71423;SDS011;59240;51.370;-0.486;2023-12-20T23:25:00;7.22;;;2.42;;
71423;SDS011;59240;51.370;-0.486;2023-12-20T23:30:12;4.85;;;0.95;;
71423;SDS011;59240;51.370;-0.486;2023-12-20T23:35:35;8.70;;;2.00;;
71423;SDS011;59240;51.370;-0.486;2023-12-20T23:40:45;4.63;;;1.08;;
71423;SDS011;59240;51.370;-0.486;2023-12-20T23:45:43;3.80;;;1.13;;
71423;SDS011;59240;51.370;-0.486;2023-12-20T23:50:40;3.30;;;1.33;;
71423;SDS011;59240;51.370;-0.486;2023-12-20T23:55:37;7.22;;;1.23;;
